BFIBOEING FIELD/KING COUNTY INTL
METARs for airports near BFI, sorted by distance:
N 0 nm 21' KBFI 200953Z 14004KT 10SM OVC032 16/14 A3009
SE 4 nm 32' KRNT 200953Z 18003KT 10SM FEW006 OVC034 16/14 A3009
S 4 nm 432' KSEA 200953Z 22004KT 5SM BR FEW007 OVC020 15/14 A3010
W 18 nm 444' KPWT 200956Z 00000KT 10SM BKN009 OVC023 15/14 A3010
SW 19 nm 294' KTIW 201028Z 00000KT 10SM SCT018 OVC030 14/13 A3010
N 22 nm 607' KPAE 201040Z 24003KT 1 1/2SM BR SCT004 BKN015 OVC024 14/14 A3011
S 24 nm 322' KTCM 201033Z 00000KT 10SM OVC007 15/15 A3010
S 25 nm 537' KPLU 201035Z 24005KT 10SM BKN005 OVC010 15/15 A3011
S 29 nm 301' KGRF 201028Z 00000KT 10SM BKN007 BKN016 OVC026 15/15 A3009
N 38 nm 141' KAWO 201030Z 01008KT 5SM -RA BR FEW005 BKN023 OVC028 14/14 A3010
SW 38 nm 272' KSHN 201001Z 00000KT 10SM SCT006 OVC011 14/14 A3008
SW 41 nm 207' KOLM 200954Z 22005KT 10SM OVC028 15/14 A3010
N 51 nm 47' KNUW 200956Z 23005KT 10SM SCT040 BKN080 15/12 A3013
N 56 nm 145' KBVS 201035Z 00000KT 10SM SCT012 BKN019 BKN060 14/13 A3010
NW 57 nm 13' KNOW 201035Z 24004KT 10SM CLR 11/11 A3009
SW 58 nm 177' KCLS 201035Z 00000KT 10SM OVC024 16/16 A3011
NW 59 nm 291' KCLM 200953Z 23003KT 10SM CLR 12/11 A3010
NW 66 nm 112' KFHR 200953Z 00000KT 9SM CLR 09/09 A3009
SW 74 nm 17' KHQM 201034Z 23003KT 3SM BR OVC002 14/13 A3010
N 74 nm 34' KORS 201035Z 17005KT 10SM CLR 13/12 A3006
N 76 nm 171' KBLI 200953Z 18006KT 10SM CLR 15/12 A3008
E 78 nm 1763' KELN 200953Z 30010KT 10SM CLR 14/09 A3004
NW 80 nm 64' CYYJ 201000Z 26005KT 20SM SKC 13/11 A3006
E 85 nm 1248' KEAT 200955Z 30006KT 10SM CLR 14/09 A3001
S 88 nm 20' KKLS 201046Z 00000KT SCT013 BKN024 OVC035 16/14 A3012
SE 92 nm 1098' KYKM 200953Z 23003KT 10SM CLR 08/06 A3004
W 94 nm 193' KUIL 201006Z 00000KT 10SM SCT006 SCT050 14/13 A3009
TAFs for airports near BFI, sorted by distance:
N 0 nm 21' KBFI KBFI 200527Z 2006/2106 17003KT P6SM VCSH FEW010 BKN015 OVC025
  TEMPO 2006/2010 BKN010 OVC020
  FM201000 16004KT P6SM OVC012
  FM201900 19003KT P6SM OVC020
  FM202100 24005KT P6SM BKN045
  FM210400 31003KT P6SM SCT050 SCT200
S 4 nm 432' KSEA KSEA 200901Z 2009/2112 15003KT 5SM BR VCSH SCT007 BKN011 OVC016
  TEMPO 2009/2012 BKN007 OVC012
  FM201200 18004KT P6SM OVC009
  FM201900 21004KT P6SM OVC015
  FM202100 25005KT P6SM BKN040
  FM210400 36005KT P6SM SCT050 SCT200
W 18 nm 444' KPWT TAF KPWT 200527Z 2006/2106 11004KT P6SM OVC010
  FM201100 19003KT P6SM OVC005
  FM201900 19004KT P6SM BKN012 OVC020
  FM202100 19005KT P6SM SCT015 BKN030
  FM210300 04004KT P6SM SCT030 SCT200
N 22 nm 607' KPAE KPAE 200527Z 2006/2106 00000KT P6SM VCSH BKN017 BKN050
  FM200900 16005KT 4SM BR OVC008
  FM201800 19004KT P6SM OVC012
  FM202100 24005KT P6SM BKN035
  FM210300 36004KT P6SM SCT040 SCT200
S 24 nm 322' KTCM TAF KTCM 200500Z 2005/2111 21006KT 9999 BKN015 OVC025 QNH3009INS
  BECMG 2011/2012 22004KT 9999 OVC008 QNH3010INS
  BECMG 2015/2016 22006KT 9999 OVC015 QNH3011INS
  BECMG 2018/2019 26010KT 9999 BKN020 OVC040 QNH3002INS
  BECMG 2021/2022 29009KT 9999 SCT020 BKN035 QNH2998INS TX21/2023Z TN11/2013Z
S 29 nm 301' KGRF TAF KGRF 200500Z 2005/2111 18006KT 9999 FEW023 QNH3008INS
  BECMG 2006/2007 21010KT 8000 BR FEW012 BKN020 QNH3008INS
  BECMG 2014/2015 23006KT 8000 -RA BR SCT005 OVC010 QNH3009INS
  BECMG 2105/2106 03005KT 9999 NSW SCT020 QNH2998INS
  BECMG 2109/2110 VRB06KT 9999 VCSH BKN030 QNH2995INS TX20/2023Z TN14/2014Z
SW 41 nm 207' KOLM KOLM 200527Z 2006/2106 20005KT 6SM -RA BR FEW030 OVC040
  FM200900 VRB03KT 3SM BR OVC010
  FM201800 21004KT P6SM OVC025
  FM202100 30004KT P6SM BKN040
  FM210300 01004KT P6SM SCT040 SCT200
N 51 nm 47' KNUW TAF KNUW 2007/2107 VRB06KT 9999 BKN050 BKN100 QNH3010INS
  TEMPO 2007/2013 1600 BR BKN003
  FM201300 VRB06KT 1600 BR BKN003 QNH3012INS
  TEMPO 2013/2019 0800 FG OVC003
  FM202000 VRB06KT FEW005 SCT010 BKN050 QNH3009INS T11/2012Z T21/2023Z FS30162
NW 59 nm 291' KCLM KCLM 200527Z 2006/2106 28008KT P6SM BKN012 OVC050
  FM201000 27003KT P6SM SCT007 OVC020
  FM202100 32005KT P6SM BKN040 BKN070
  FM210300 29006KT P6SM SCT040 SCT200
SW 74 nm 17' KHQM KHQM 200527Z 2006/2106 21004KT P6SM OVC009
  FM201800 VRB04KT P6SM OVC012
  FM202100 23008KT P6SM BKN035
  FM210300 27006KT P6SM SCT040 SCT200
N 76 nm 171' KBLI KBLI 200527Z 2006/2106 20007KT P6SM BKN050 OVC090
  FM201000 17007KT P6SM OVC025
  FM202100 18006KT P6SM BKN050
  FM210300 17005KT P6SM BKN070 BKN120
E 85 nm 1248' KEAT TAF KEAT 200520Z 2006/2106 30012KT P6SM SKC
  FM200800 31007KT P6SM SKC
  FM201800 29006KT P6SM SCT050
  FM202100 19005KT P6SM SCT050
SE 92 nm 1098' KYKM TAF KYKM 200520Z 2006/2106 33008KT P6SM SCT080
  FM201800 VRB05KT P6SM SKC

Shortcut to this page: http://wxbay.com.

Data may contain errors.